This site, now in its 15th season, is a labour of love and fun from one of Ottawa's most avid time trialists and number crunchers. It adheres to and is permitted by the laws of Canada, promotes the objectives of every bicycle club whose results are shown, and is donated free of charge by myself for your enjoyment and usage. If you would like results from series you ride in to be shown here, give me (celia@drmath.ca) a shout!


Index Page
ATT OTT WTT AATT CFCTT VVVTT
Help resultformat:
Case-sensitive

OBC Open TT Series - 2009-May-21 - 15km (Rockliffe Pkwy) (EvtFactor = 0.8336)

Weather (18:00): Mainly Sunny. Temp.: 27C, Humidity: 32%, Dew Point: 9C, Wind: SW 30 gust 48km/h, Pressure: 101.3kPa, Vis: 24km, Humidex: 28.
Weather (19:00): Mainly Sunny. Temp.: 26C, Humidity: 34%, Dew Point: 9C, Wind: SSW 30 gust 41km/h, Pressure: 101.3kPa, Vis: 24km, Humidex: 27.
Weather (20:00): Mainly Sunny. Temp.: 25C, Humidity: 38%, Dew Point: 9C, Wind: SW 24km/h, Pressure: 101.4kPa, Vis: 24km, Humidex: 26.

Send photos with description (when/where/what) of yourself on or off of bike to celia@drmath.ca

These results were first posted on the OBC site circa 23:30 on 2009-May-21 and are available here for your added pleasure and analysis.

Comments awaiting posting of 2009-May-14 results...

 
 

BESTS?
 
1 MacDonald, Warren  OBC/EMD 18:58 47.452 1/92 VAM 1/18 1.0133
2 Fillion, Aaron  OBC 19:09 46.997 2/92 VAM 2/18 0.9974
3 Nash, Michael  OBC 19:32 46.075 3/92 VBM 1/19  
4 Amos, Ron  OBC/RWR 19:57 45.113 4/92 VBM 2/19  
5 Martel, Brad RWR 20:06 44.776 5/92 VBM 3/19  
6 Datars, Paul  OBC/RWR 20:10 44.628 6/92 VCM 1/15  
7 Cataford, Alex OBC 20:36 43.689 7/92 CAM 1/2 1.0146
8 Dal-Cin, Matteo  EUR 20:46 43.339 8/92 JUM 1/3 0.9690
Olson, Chris EMD 20:46 43.339 8/92 VBM 4/19 0.9952
10 van den Ham, Douglas  OBC/EMD 20:48 43.269 10/92 VAM 3/18 0.9597
11 Sudac, Rick  OBC/RWR 20:51 43.165 11/92 VDM 1/8 1.0217
12 Gee, Jon OBC 20:52 43.131 12/92 VBM 5/19  
13 Roth, Casey  RWR 20:55 43.028 13/92 SEM 1/10  
14 Desbiens, Martin OBC 21:03 42.755 14/92 VBM 6/19 1.0023
15 Zuliani, Greg EMD 21:05 42.688 15/92 SEM 2/10 1.3672
16 Zappe, Erich RWR 21:16 42.320 16/92 VBM 7/19  
17 Hawkes, Craig CYC 21:20 42.188 17/92 VAM 4/18 0.8469
18 Christie, Greg  OBC/RWR 21:28 41.925 18/92 VCM 2/15  
19 Ferguson, James OBC 21:39 41.570 19/92 VBM 8/19  
Hamilton, Peter OBC 21:39 41.570 19/92 VBM 8/19 0.9191
21 Sugden, David OBC 22:00 40.909 21/92 VBM 10/19 0.9531
22 Gorman, Charlie OBC 22:02 40.847 22/92 SEM 3/10  
23 Cameron, Allen  OBC/RWR 22:04 40.785 23/92 VCM 3/15 0.9686
24 Morewood, Colin OBC 22:05 40.755 24/92 JUM 2/3 0.9955
25 Diaz, Rodrigo  OBC 22:10 40.602 25/92 VAM 5/18  
26 Lefebvre, Jean-Pierre OBC 22:11 40.571 26/92 VAM 6/18 0.9556
27 Farish, Neil  OBC 22:19 40.329 27/92 VCM 4/15 0.9602
28 Tregunno, Peter  OBC 22:20 40.299 28/92 VAM 7/18 0.9494
29 Mullington, Chris WQW 22:26 40.119 29/92 VCM 5/15 0.8968
30 Gerrard, David  OBC 22:33 39.911 30/92 VBM 11/19 1.0773
31 Labelle, Marc-Antoine OBC 22:50 39.416 31/92 CAM 2/2 1.1065
32 Ferguson, Scott OBC 22:53 39.330 32/92 VBM 12/19  
33 Thomas, Trevor CYC 23:09 38.877 33/92 VAM 8/18  
34 Moerman, Bram  OBC 23:18 38.627 34/92 VDM 2/8 0.9872
35 Kirton, Ian OBC 23:23 38.489 35/92 VAM 9/18 1.1339
36 Sargent, Larry OBC 23:31 38.271 36/92 VCM 6/15 1.1493
37 Konov, Sergei OBC 23:36 38.136 37/92 VAM 10/18 0.9521
38 Stec, Artur OBC 23:37 38.109 38/92 VBM 13/19  
39 Hall, Margot OBC 23:42 37.975 39/92 VAF 1/2 0.9853
40 Burdett, Avery  OBC 23:44 37.921 40/92 VEM 1/1 0.9482
McCutcheon, Drew OBC 23:44 37.921 40/92 VAM 11/18  
42 Coney, Michael OBC 23:50 37.762 42/92 VDM 3/8 1.0340
43 Coney, Sarah OBC 23:51 37.736 43/92 SEF 1/4 0.9771
44 Boulanger, Gaetan  OBC 23:53 37.683 44/92 VDM 4/8  
Trafford, Brian OBC 23:53 37.683 44/92 JUM 3/3 0.9325
46 Medaglia, Tyler OBC 23:54 37.657 46/92 SEM 4/10 1.0620
47 Diotte, Daniel OBC 23:56 37.604 47/92 VBM 14/19 1.0531
48 Reissner, Leslie OBC 23:58 37.552 48/92 VCM 7/15 0.9169
49 Guenette, Jean-Yves OBC 24:02 37.448 49/92 VCM 8/15 1.0703
Posthuma, Hans  OBC 24:02 37.448 49/92 VCM 8/15 0.8689
51 Armstrong, Brian OBC 24:03 37.422 51/92 VBM 15/19 1.1098
52 Brügger, Marcel RWR 24:04 37.396 52/92 VCM 10/15 0.9958
53 Robitaille, Brian  OBC 24:16 37.088 53/92 VBM 16/19 0.9316
54 Gonsalves, Rory  FC 24:26 36.835 54/92 VAM 12/18  
55 Forcese, Craig OBC 24:27 36.810 55/92 VBM 17/19 1.0061
56 Voyer, Christian OBC 24:45 36.364 56/92 VAM 13/18  
57 Blais, Bob OBC 24:47 36.315 57/92 VCM 11/15 1.0101
Page, Graham OBC 24:47 36.315 57/92 SEM 5/10 1.0388
59 Phillips, Ron OBC 24:48 36.290 59/92 VDM 5/8 1.1194
60 Braekevelt, Eric OBC 24:51 36.217 60/92 VAM 14/18 0.9427
61 Dorego, Jean-Louis OBC 24:52 36.193 61/92 VCM 12/15 0.9313
62 Imbrogno, Giorgio  OBC 25:02 35.952 62/92 VDM 6/8 0.9509
63 Brown, Greg OBC 25:20 35.526 63/92 VDM 7/8  
64 Brown, Dave OBC 25:29 35.317 64/92 VBM 18/19  
65 Henry, Mike --- 25:39 35.088 65/92 VAM 15/18 0.8451
66 Ingham, Alison  OBC/RWR 25:53 34.771 66/92 VBF 1/7 0.9047
67 Labrecque, Jean-François FC 26:07 34.461 67/92 SEM 6/10  
68 Bernard, Audrey OBC 26:11 34.373 68/92 CAF 1/2 0.9401
69 Gagnon, Alexandre  OBC 26:23 34.112 69/92 SEM 7/10 1.1038
70 Datars, Sally OBC 26:29 33.984 70/92 VBF 2/7  
71 Martin, Linda OBC 26:42 33.708 71/92 VBF 3/7  
72 Saint-Arnaud-Watt, Chloe ULT 26:44 33.666 72/92 SEF 2/4  
73 Worobeck, Kathleen CYF 26:51 33.520 73/92 SEF 3/4 0.9705
74 Aimers, Julia OBC 27:06 33.210 74/92 VBF 4/7  
75 Pelletier, Luc OBC 27:13 33.068 75/92 VAM 16/18 1.0467
76 McLaughlin, Bryan OBC 27:25 32.827 76/92 SEM 8/10 1.1592
77 McInnis, Celia  OBC/ABC 27:30 32.727 77/92 VCF 1/1 0.8418
78 McCallum, Carrie OBC 27:35 32.628 78/92 VBF 5/7  
79 Ferlatte, Kari  FAE 27:49 32.355 79/92 VAF 2/2 0.9645
80 Quance, Terry OBC 27:53 32.277 80/92 VDM 8/8  
81 van Zandvoort, Mike OBC 28:22 31.727 81/92 SEM 9/10  
82 McLaren, Louise  OBC 28:45 31.304 82/92 VBF 6/7 0.9741
83 Plouffe, Yves OBC 28:46 31.286 83/92 VBM 19/19  
84 Gagnon, Jules OBC 29:14 30.787 84/92 VCM 13/15 0.9796
85 Nesdoly, Nina  OBC 29:50 30.168 85/92 CAF 2/2 0.8506
86 Los, Lindsay  OBC 30:05 29.917 86/92 SEF 4/4 1.0234
87 Nowoselski, Shiree  OBC 30:56 29.095 87/92 VBF 7/7 0.9046
88 McLaughlin, Lindsey OBC 31:05 28.954 88/92 SEM 10/10 0.9081
89 Ramcharan, John OBC 32:06 28.037 89/92 VCM 14/15 1.0094
90 LeBrun, Robert OBC 35:46 25.163 90/92 VAM 17/18 1.7497
91 Hess, Detlef OBC DNF   92/92 VCM 15/15  
Langevin, Roger  OBC DNS   91/92 VAM 18/18  
 
Average Speed of all of the above 90 finishes (1350km in 36:28:14):37.016
>>>Average of the Average Speeds for these 90 finishes37.589<<<
 

The number of data records shown above is 92
The server processing of your query took: 0 wallclock secs ( 0.06 usr + 0.00 sys = 0.06 CPU)

Thanks to our Helpers: Allen Cameron, Gunter Hauschildt, Alison Ingham, Shannon Joplin, Dianne Marleau, Alex McKnight, Stephanie Rees, Mark Samborsky.

     


Apr 10 (Good Friday)
May 5 (10km) May 7 May 12 (10km) May 14 May 19 May 19 (10km)
  May 21  
May 26 May 26 (10km) May 28 May 31 (40km)
Jun 2 Jun 2 Jun 4 Jun 9 Jun 9 Jun 11 Jun 16 Jun 16 Jun 18 Jun 23 Jun 23 Jun 25 Jun 30 Jun 30
Jul 2 Jul 5 (40km) Jul 7 Jul 7 (10km) Jul 9 (10km) Jul 12 (40km) Jul 14 Jul 14 (10km) Jul 16 (10km) Jul 21 Jul 21 (10km) Jul 23 Jul 23 (10km) Jul 28 Jul 28 (10km) Jul 30 (10km)
Aug 4 (cancelled - thunder storm) Aug 4 (10km) (cancelled - thunder storm) Aug 6 (10km) Aug 9 (40km) Aug 11 Aug 11 (10km) Aug 13 (10km) Aug 18 Aug 18 (10km) Aug 20 (10km) (cancelled - construction) Aug 25 Aug 25 (Invitational) Aug 27
Sep 1 Sep 3 Sep 8 Sep 10 Sep 13 (40km) Sep 15 Sep 22 Sep 29

OTT Rankings
Best       Best by category
WTT Rankings for OBC Members
4 Best Speeds     4 Best Speeds by category
OBC Member Best Three 15km Rankings
Overall     by category     age-Hcap Female   age-Hcap Male
OBC BAR Ranking
Overall     by category     Rider "Consistency-Graph"
ABC BAR Ranking
Overall     by category     Rider "Consistency-Graph"
Other years
TT Calculator All TT People All TT events
ABC Home VVV Home
CKAP GOLD MEDAL
Other Links

Note: OTT data from 2003 through 2006-Apr-14 and 2007-Apr-06-? and WTT from 2008-? is taken from the official OBC site.

Please send your comments and suggestions to: Celia McInnis
Copyright © 1998-2011 Celia McInnis. All rights reserved. Links are welcomed.